Latest Weather Observations for Southern Cross Airport

IDW60801

Issued at 11:34 am WST Wednesday 22 February 2017 (issued every 30 minutes, with the page automatically refreshed every 10 minutes)

About weather observations | Map of weather stations | Latest weather observations for WA | Other Formats
Station Details ID: 012320 Name: SOUTHERN CROSS AIRFIELD Lat: -31.24 Lon: 119.36 Height: 347.4 m
Data from the previous 72 hours. | See also: Recent months at Southern Cross Airport
Date/Time
WST
Temp
°C
App
Temp
°C
Dew
Point
°C
Rel
Hum
%
Delta-T
°C
Wind Press
QNH
hPa
Press
MSL
hPa
Rain since
9am
mm
Dir  Spd
km/h
Gust
km/h
Spd
kts
Gust
kts
22/11:30am 20.1 17.6 4.6 36 7.6 SSW 7 19 4 10 1020.9 1018.9 0.0
22/11:00am 19.3 16.4 4.6 38 7.2 SE 9 19 5 10 1021.2 1019.2 0.0
22/10:30am 18.0 14.1 5.2 43 6.3 SSE 15 20 8 11 1021.5 1019.5 0.0
22/10:00am 17.5 14.8 5.4 45 5.9 SW 9 17 5 9 1021.6 1019.6 0.0
22/09:30am 16.8 14.1 5.4 47 5.6 SSE 9 26 5 14 1021.7 1019.7 0.0
22/09:00am 15.7 13.0 5.6 51 4.9 S 9 15 5 8 1021.8 1019.8 0.0
22/08:30am 14.7 11.2 5.5 54 4.4 S 13 17 7 9 1021.7 1019.7 0.0
22/08:00am 14.1 11.0 5.7 57 4.0 S 11 17 6 9 1021.6 1019.6 0.0
22/07:30am 12.9 10.2 5.6 61 3.5 SSE 9 13 5 7 1021.4 1019.4 0.0
22/07:00am 11.1 9.7 5.4 68 2.7 SW 2 7 1 4 1020.9 1018.9 0.0
22/06:30am 8.9 7.8 5.1 77 1.7 CALM 0 0 0 0 1020.4 1018.4 0.0
22/06:00am 7.6 6.4 4.4 80 1.4 CALM 0 0 0 0 1020.1 1018.1 0.0
22/05:30am 8.2 6.9 4.2 76 1.8 CALM 0 0 0 0 1019.9 1017.9 0.0
22/05:00am 8.5 6.0 4.5 76 1.8 SW 7 9 4 5 1019.4 1017.4 0.0
22/04:30am 8.8 7.6 4.4 74 2.0 CALM 0 0 0 0 1019.0 1017.0 0.0
22/04:00am 10.8 8.2 4.0 63 3.1 SE 7 9 4 5 1018.4 1016.4 0.0
22/03:30am 11.1 8.1 3.9 61 3.3 SE 9 13 5 7 1018.2 1016.1 0.0
22/03:00am 11.7 8.8 4.4 61 3.4 S 9 11 5 6 1017.8 1015.7 0.0
22/02:30am 12.2 8.5 4.2 58 3.7 S 13 17 7 9 1017.4 1015.4 0.0
22/02:00am 12.5 8.8 4.2 57 3.8 S 13 17 7 9 1017.4 1015.4 0.0
22/01:30am 13.1 8.9 4.0 54 4.2 S 15 19 8 10 1017.4 1015.4 0.0
22/01:00am 13.5 9.4 4.1 53 4.4 S 15 19 8 10 1017.7 1015.6 0.0
22/12:30am 13.7 9.5 4.0 52 4.5 S 15 19 8 10 1017.7 1015.6 0.0
22/12:00am 14.0 10.3 4.3 52 4.5 S 13 15 7 8 1017.5 1015.5 0.0
 
Date/Time
WST
Temp
°C
App
Temp
°C
Dew
Point
°C
Rel
Hum
%
Delta-T
°C
Wind Press
QNH
hPa
Press
MSL
hPa
Rain since
9am
mm
Dir  Spd
km/h
Gust
km/h
Spd
kts
Gust
kts
21/11:30pm 14.6 10.1 4.3 50 4.8 S 17 22 9 12 1017.4 1015.4 0.0
21/11:00pm 15.2 10.7 4.0 47 5.3 S 17 22 9 12 1017.4 1015.4 0.0
21/10:30pm 15.9 10.7 3.7 44 5.7 S 20 28 11 15 1017.3 1015.3 0.0
21/10:00pm 16.7 11.1 3.7 42 6.1 S 22 30 12 16 1017.1 1015.1 0.0
21/09:30pm 17.2 11.5 3.1 39 6.6 S 22 28 12 15 1016.8 1014.8 0.0
21/09:00pm 17.7 12.4 2.8 37 7.0 S 20 26 11 14 1016.4 1014.4 0.0
21/08:30pm 18.1 13.4 3.2 37 7.0 SSW 17 24 9 13 1016.2 1014.2 0.0
21/08:00pm 18.7 13.5 3.3 36 7.3 SSW 20 24 11 13 1015.7 1013.7 0.0
21/07:30pm 19.1 14.0 2.9 34 7.7 SW 19 24 10 13 1015.3 1013.2 0.0
21/07:00pm 19.9 13.6 1.8 30 8.4 SW 24 32 13 17 1014.8 1012.7 0.0
21/06:30pm 21.0 13.5 1.3 27 9.2 SSW 30 39 16 21 1014.2 1012.2 0.0
21/06:00pm 21.8 14.0 2.0 27 9.4 SW 32 41 17 22 1013.7 1011.7 0.0
21/05:30pm 22.5 14.3 2.6 27 9.6 SW 35 46 19 25 1013.1 1011.1 0.0
21/05:00pm 22.8 14.2 2.8 27 9.7 SW 37 50 20 27 1012.7 1010.6 0.0
21/04:36pm 23.4 14.7 3.9 28 9.7 SW 39 57 21 31 1012.6 1010.5 0.0
21/04:30pm 23.2 14.3 3.2 27 9.8 SW 39 52 21 28 1012.4 1010.3 0.0
21/04:02pm 23.9 15.6 4.3 28 9.9 WSW 37 56 20 30 1012.1 1010.0 0.0
21/04:00pm 23.6 14.8 3.5 27 9.9 WSW 39 56 21 30 1012.1 1010.0 0.0
21/03:36pm 23.7 15.4 4.1 28 9.8 SW 37 56 20 30 1012.1 1010.0 0.0
21/03:30pm 23.7 15.0 4.1 28 9.8 SW 39 50 21 27 1011.9 1009.8 0.0
21/03:04pm 23.6 15.3 6.0 32 9.1 SW 39 57 21 31 1011.9 1009.8 0.0
21/03:00pm 23.7 14.9 5.6 31 9.3 SW 41 57 22 31 1011.9 1009.8 0.0
21/02:42pm 24.2 16.6 6.0 31 9.5 WSW 35 57 19 31 1011.7 1009.6 0.0
21/02:30pm 23.6 16.4 7.7 36 8.5 WSW 35 48 19 26 1011.7 1009.6 0.0
21/02:16pm 23.6 16.6 6.8 34 8.8 WSW 33 48 18 26 1011.7 1009.6 0.0
21/02:00pm 23.4 15.6 6.7 34 8.8 W 37 52 20 28 1011.8 1009.7 0.0
21/01:30pm 22.3 16.2 9.8 45 6.9 WSW 32 41 17 22 1011.9 1009.8 0.0
21/01:00pm 21.7 15.0 9.6 46 6.6 WSW 35 46 19 25 1012.3 1010.2 0.0
21/12:30pm 21.2 14.5 9.8 48 6.2 WSW 35 48 19 26 1012.4 1010.3 0.0
21/12:24pm 22.1 15.6 10.3 47 6.5 WSW 35 54 19 29 1012.4 1010.3 0.0
21/12:00pm 21.3 13.6 10.2 49 6.1 WSW 41 52 22 28 1012.4 1010.3 0.0
21/11:30am 21.1 13.0 10.0 49 6.1 WSW 43 57 23 31 1012.4 1010.3 0.0
21/11:12am 21.8 14.1 10.0 47 6.5 WSW 41 61 22 33 1012.3 1010.2 0.0
21/11:00am 21.9 14.6 10.1 47 6.5 WSW 39 50 21 27 1012.4 1010.3 0.0
21/10:30am 21.0 13.9 9.6 48 6.2 WSW 37 50 20 27 1012.3 1010.2 0.0
21/10:00am 20.4 13.7 9.6 50 5.9 WSW 35 48 19 26 1012.5 1010.4 0.0
21/09:30am 19.4 12.7 9.6 53 5.3 WSW 35 50 19 27 1012.5 1010.4 0.0
21/09:00am 18.6 12.4 9.4 55 4.9 W 32 43 17 23 1012.3 1010.2 0.0
21/08:30am 17.9 11.5 9.3 57 4.6 WSW 33 44 18 24 1012.2 1010.1 0.0
21/08:00am 17.1 11.6 9.0 59 4.3 WSW 28 37 15 20 1012.1 1010.0 0.0
21/07:30am 16.0 10.5 9.0 63 3.7 WSW 28 43 15 23 1012.0 1009.9 0.0
21/07:00am 15.3 11.4 9.4 68 3.1 WSW 20 32 11 17 1011.8 1009.7 0.0
21/06:30am 14.7 11.0 10.1 74 2.4 W 20 26 11 14 1011.2 1009.2 0.0
21/06:00am 14.8 10.0 10.4 75 2.4 WSW 26 37 14 20 1010.8 1008.8 0.0
21/05:30am 15.2 11.4 11.0 76 2.3 WSW 22 32 12 17 1010.4 1008.3 0.0
21/05:00am 16.1 11.6 11.5 74 2.5 WSW 26 35 14 19 1010.1 1008.0 0.0
21/04:30am 16.3 11.6 11.9 75 2.4 WSW 28 43 15 23 1009.7 1007.6 0.0
21/04:00am 17.0 11.6 12.1 73 2.7 WSW 32 39 17 21 1009.4 1007.3 0.0
21/03:30am 17.9 13.7 13.6 76 2.5 WSW 28 41 15 22 1009.0 1006.9 0.0
21/03:00am 18.8 16.6 14.3 75 2.6 WSW 19 30 10 16 1008.6 1006.5 0.0
21/02:30am 18.6 17.4 15.1 80 2.1 WSW 15 20 8 11 1008.6 1006.5 0.0
21/02:00am 18.7 16.6 14.6 77 2.4 WSW 19 26 10 14 1009.0 1006.9 0.0
21/01:30am 19.2 16.5 14.7 75 2.7 WSW 22 32 12 17 1009.6 1007.5 0.0
21/01:00am 19.8 15.7 14.8 73 3.0 W 30 43 16 23 1010.3 1008.2 0.0
21/12:30am 21.9 17.6 16.8 73 3.2 W 35 52 19 28 1010.3 1008.2 0.0
21/12:29am 22.7 18.4 16.9 70 3.6 WNW 35 52 19 28 1010.2 1008.1 0.0
21/12:24am 24.2 20.4 17.2 65 4.4 WNW 33 52 18 28 1010.0 1007.9 0.0
21/12:00am 24.8 22.4 17.3 63 4.7 WNW 26 35 14 19 1010.1 1008.0 0.0
 
Date/Time
WST
Temp
°C
App
Temp
°C
Dew
Point
°C
Rel
Hum
%
Delta-T
°C
Wind Press
QNH
hPa
Press
MSL
hPa
Rain since
9am
mm
Dir  Spd
km/h
Gust
km/h
Spd
kts
Gust
kts
20/11:30pm 25.0 22.8 17.0 61 5.0 NW 24 37 13 20 1010.3 1008.2 0.0
20/11:00pm 24.8 23.2 16.5 60 5.2 NW 20 30 11 16 1010.4 1008.3 0.0
20/10:30pm 24.5 23.2 16.7 61 4.9 NNW 19 24 10 13 1010.5 1008.5 0.0
20/10:00pm 24.6 23.1 16.8 62 4.9 N 20 28 11 15 1010.8 1008.8 0.0
20/09:30pm 24.4 23.5 16.9 63 4.7 N 17 20 9 11 1010.9 1008.9 0.0
20/09:00pm 24.9 23.5 16.9 61 5.0 N 20 28 11 15 1010.9 1008.9 0.0
20/08:30pm 25.8 23.9 16.6 56 5.8 N 22 30 12 16 1011.0 1009.0 0.0
20/08:00pm 26.2 24.9 15.9 53 6.4 NW 17 20 9 11 1010.2 1008.1 0.0
20/07:30pm 26.8 24.9 15.8 51 6.8 NW 20 26 11 14 1010.0 1007.9 0.0
20/07:00pm 27.5 24.9 15.8 48 7.3 W 24 32 13 17 1009.1 1007.0 0.0
20/06:30pm 28.1 24.3 15.7 46 7.7 W 30 46 16 25 1008.8 1006.7 0.0
20/06:00pm 29.0 24.1 15.2 43 8.6 W 35 46 19 25 1008.3 1006.3 0.0
20/05:46pm 29.5 24.2 16.3 45 8.3 WSW 39 57 21 31 1008.3 1006.3 0.0
20/05:30pm 30.2 25.6 15.1 40 9.4 WSW 33 44 18 24 1008.0 1006.0 0.0
20/05:02pm 31.3 26.1 16.5 41 9.4 WSW 39 57 21 31 1007.6 1005.5 0.0
20/05:00pm 31.3 25.3 16.5 41 9.4 WSW 43 57 23 31 1007.6 1005.5 0.0
20/04:35pm 33.8 30.4 15.7 33 11.5 W 28 57 15 31 1007.1 1005.0 0.0
20/04:30pm 34.6 30.4 11.1 24 14.0 WNW 24 39 13 21 1006.9 1004.8 0.0
20/04:00pm 35.1 29.5 10.2 22 14.7 WNW 30 39 16 21 1007.0 1004.9 0.0
20/03:39pm 35.3 30.1 10.4 22 14.7 WNW 28 44 15 24 1007.3 1005.2 0.0
20/03:30pm 35.6 32.2 10.6 22 14.8 WNW 19 26 10 14 1007.3 1005.2 0.0
20/03:00pm 35.7 32.1 12.0 24 14.4 WNW 22 32 12 17 1007.7 1005.6 0.0
20/02:44pm 35.9 31.1 11.5 23 14.7 NW 28 50 15 27 1007.8 1005.7 0.0
20/02:30pm 34.8 30.5 11.9 25 13.8 WNW 26 37 14 20 1008.3 1006.3 0.0
20/02:00pm 34.5 31.4 13.3 27 13.1 NNW 22 32 12 17 1008.9 1006.8 0.0
20/01:30pm 35.1 30.4 13.3 27 13.4 WNW 30 37 16 20 1009.5 1007.4 0.0
20/01:05pm 34.1 29.9 13.5 28 12.7 WNW 28 52 15 28 1010.0 1007.9 0.0
20/01:00pm 35.2 32.1 14.5 29 13.0 WNW 24 52 13 28 1010.0 1007.9 0.0
20/12:30pm 33.6 30.0 13.1 29 12.5 NNW 24 35 13 19 1010.4 1008.3 0.0
20/12:00pm 33.2 30.8 14.3 32 11.7 NW 20 35 11 19 1010.8 1008.8 0.0
20/11:30am 32.7 29.8 15.2 34 11.0 NNW 24 39 13 21 1011.2 1009.2 0.0
20/11:00am 32.6 29.4 14.2 32 11.4 NNW 24 32 13 17 1011.8 1009.7 0.0
20/10:30am 32.4 29.3 14.5 33 11.1 NNW 24 30 13 16 1012.3 1010.2 0.0
20/10:00am 31.2 27.4 12.5 31 11.2 NNW 24 33 13 18 1012.6 1010.5 0.0
20/09:30am 30.6 26.9 11.5 30 11.3 NNW 22 32 12 17 1012.8 1010.7 0.0
20/09:00am 29.9 25.9 10.5 30 11.2 N 22 30 12 16 1013.1 1011.1 0.0
20/08:30am 28.2 24.2 10.4 33 10.2 N 22 28 12 15 1013.2 1011.2 0.0
20/08:00am 26.6 23.2 10.7 37 9.1 N 19 26 10 14 1013.3 1011.3 0.0
20/07:30am 24.7 22.5 10.9 42 7.8 N 13 20 7 11 1013.6 1011.6 0.0
20/07:00am 23.3 20.7 10.7 45 7.1 N 15 20 8 11 1013.7 1011.7 0.0
20/06:30am 22.2 20.4 10.7 48 6.4 N 11 15 6 8 1013.6 1011.6 0.0
20/06:00am 20.4 19.0 10.8 54 5.3 N 9 13 5 7 1013.5 1011.5 0.0
20/05:30am 20.8 19.6 10.3 51 5.8 N 7 7 4 4 1013.3 1011.3 0.0
20/05:00am 20.8 19.1 10.0 50 5.9 N 9 9 5 5 1013.1 1011.1 0.0
20/04:30am 21.3 18.9 9.9 48 6.3 N 13 15 7 8 1012.9 1010.8 0.0
20/04:00am 23.0 19.2 9.0 41 7.6 NNE 19 22 10 12 1012.7 1010.6 0.0
20/03:30am 23.1 20.1 9.1 41 7.6 NNE 15 20 8 11 1012.9 1010.8 0.0
20/03:00am 22.8 19.9 9.6 43 7.3 NNE 15 19 8 10 1013.2 1011.2 0.0
20/02:30am 22.1 19.0 10.3 47 6.5 NNE 17 20 9 11 1013.2 1011.2 0.0
20/02:00am 21.9 19.2 10.4 48 6.4 NNE 15 19 8 10 1013.4 1011.4 0.0
20/01:30am 22.4 20.4 10.2 46 6.8 N 11 15 6 8 1013.6 1011.6 0.0
20/01:00am 21.4 21.2 10.6 50 6.0 N 2 6 1 3 1013.8 1011.8 0.0
20/12:30am 22.5 20.7 9.3 43 7.2 NNE 9 11 5 6 1013.9 1011.9 0.0
20/12:00am 24.2 21.8 8.6 37 8.5 NNE 11 15 6 8 1013.9 1011.9 0.0
 
Date/Time
WST
Temp
°C
App
Temp
°C
Dew
Point
°C
Rel
Hum
%
Delta-T
°C
Wind Press
QNH
hPa
Press
MSL
hPa
Rain since
9am
mm
Dir  Spd
km/h
Gust
km/h
Spd
kts
Gust
kts
19/11:30pm 25.4 21.7 8.0 33 9.4 NE 17 20 9 11 1013.9 1011.9 0.0
19/11:00pm 25.7 22.1 8.2 33 9.5 NE 17 20 9 11 1013.9 1011.9 0.0
19/10:30pm 25.7 21.8 8.7 34 9.3 NE 19 20 10 11 1014.1 1012.1 0.0
19/10:00pm 26.4 22.3 8.8 33 9.7 NE 20 24 11 13 1014.2 1012.2 0.0
19/09:30pm 26.5 22.8 9.4 34 9.6 ENE 19 22 10 12 1014.2 1012.2 0.0
19/09:00pm 25.9 23.9 11.6 40 8.3 ENE 13 19 7 10 1014.5 1012.5 0.0
19/08:30pm 25.6 24.3 12.4 43 7.7 ENE 11 13 6 7 1014.3 1012.3 0.0
19/08:00pm 26.9 26.5 12.5 40 8.5 ENE 6 7 3 4 1014.3 1012.3 0.0
19/07:30pm 27.8 27.2 12.2 38 9.2 NE 7 9 4 5 1014.2 1012.2 0.0
19/07:00pm 29.4 28.7 11.5 33 10.5 NNE 6 7 3 4 1014.2 1012.2 0.0
19/06:30pm 31.2 30.4 11.1 29 11.8 ENE 6 9 3 5 1014.1 1012.1 0.0
19/06:00pm 32.2 31.2 10.3 26 12.8 E 6 7 3 4 1013.8 1011.8 0.0
19/05:30pm 32.7 32.1 8.9 23 13.6 ESE 2 9 1 5 1013.8 1011.8 0.0
19/05:00pm 32.7 31.3 8.9 23 13.6 E 6 7 3 4 1013.9 1011.9 0.0
19/04:30pm 32.4 30.6 8.0 22 13.7 ENE 7 11 4 6 1014.1 1012.1 0.0
19/04:00pm 32.5 30.1 8.7 23 13.5 NW 11 17 6 9 1014.3 1012.3 0.0
19/03:30pm 32.8 31.0 9.6 24 13.4 NNW 9 15 5 8 1014.5 1012.5 0.0
19/03:00pm 31.8 28.8 7.5 22 13.5 N 13 24 7 13 1014.8 1012.7 0.0
19/02:30pm 32.2 30.5 8.4 23 13.4 N 7 11 4 6 1015.1 1013.0 0.0
19/02:00pm 31.7 29.3 8.7 24 13.0 NE 11 19 6 10 1015.4 1013.3 0.0
19/01:30pm 31.0 28.2 8.7 25 12.6 N 13 24 7 13 1015.9 1013.9 0.0
19/01:00pm 30.4 27.0 7.6 24 12.6 NNE 15 24 8 13 1016.4 1014.4 0.0
19/12:30pm 30.3 26.9 9.2 27 12.0 NNE 17 28 9 15 1016.8 1014.8 0.0
19/12:00pm 29.3 25.9 7.8 26 11.8 N 15 24 8 13 1017.3 1015.3 0.0

Other Formats:

Comma delimited format used in spreadsheet applications
http://www.bom.gov.au/fwo/IDW60801/IDW60801.95634.axf

JavaScript Object Notation format (JSON) in row-major order
http://www.bom.gov.au/fwo/IDW60801/IDW60801.95634.json